sensor_id;sensor_type;location;lat;lon;timestamp;P1;durP1;ratioP1;P2;durP2;ratioP2
39772;SDS011;25451;51.960;6.250;2023-04-01T00:00:26;4.82;;;1.00;;
39772;SDS011;25451;51.960;6.250;2023-04-01T00:02:51;2.63;;;0.95;;
39772;SDS011;25451;51.960;6.250;2023-04-01T00:05:17;2.90;;;0.90;;
39772;SDS011;25451;51.960;6.250;2023-04-01T00:07:42;2.70;;;1.03;;
39772;SDS011;25451;51.960;6.250;2023-04-01T00:10:09;2.57;;;0.90;;
39772;SDS011;25451;51.960;6.250;2023-04-01T00:12:36;1.98;;;1.00;;
39772;SDS011;25451;51.960;6.250;2023-04-01T00:15:02;2.88;;;1.00;;
39772;SDS011;25451;51.960;6.250;2023-04-01T00:17:29;1.77;;;0.93;;
39772;SDS011;25451;51.960;6.250;2023-04-01T00:19:55;1.98;;;0.90;;
39772;SDS011;25451;51.960;6.250;2023-04-01T00:22:21;2.90;;;1.33;;
39772;SDS011;25451;51.960;6.250;2023-04-01T00:24:47;1.77;;;0.90;;
39772;SDS011;25451;51.960;6.250;2023-04-01T00:27:12;2.23;;;0.90;;
39772;SDS011;25451;51.960;6.250;2023-04-01T00:29:37;4.20;;;0.80;;
39772;SDS011;25451;51.960;6.250;2023-04-01T00:32:03;2.65;;;0.80;;
39772;SDS011;25451;51.960;6.250;2023-04-01T00:34:28;1.43;;;0.73;;
39772;SDS011;25451;51.960;6.250;2023-04-01T00:36:53;2.17;;;1.00;;
39772;SDS011;25451;51.960;6.250;2023-04-01T00:39:19;2.57;;;0.90;;
39772;SDS011;25451;51.960;6.250;2023-04-01T00:41:45;1.33;;;0.70;;
39772;SDS011;25451;51.960;6.250;2023-04-01T00:44:16;2.90;;;0.80;;
39772;SDS011;25451;51.960;6.250;2023-04-01T00:46:44;3.08;;;0.90;;
39772;SDS011;25451;51.960;6.250;2023-04-01T00:49:09;2.90;;;0.70;;
39772;SDS011;25451;51.960;6.250;2023-04-01T00:51:35;1.92;;;0.88;;
39772;SDS011;25451;51.960;6.250;2023-04-01T00:54:03;3.80;;;0.97;;
39772;SDS011;25451;51.960;6.250;2023-04-01T00:56:30;1.75;;;0.85;;
39772;SDS011;25451;51.960;6.250;2023-04-01T00:59:00;1.70;;;1.00;;
39772;SDS011;25451;51.960;6.250;2023-04-01T01:01:29;5.88;;;1.20;;
39772;SDS011;25451;51.960;6.250;2023-04-01T01:03:55;3.00;;;0.93;;
39772;SDS011;25451;51.960;6.250;2023-04-01T01:14:19;3.38;;;1.10;;
39772;SDS011;25451;51.960;6.250;2023-04-01T01:16:58;4.72;;;1.15;;
39772;SDS011;25451;51.960;6.250;2023-04-01T01:27:35;2.08;;;1.15;;
39772;SDS011;25451;51.960;6.250;2023-04-01T01:35:36;2.78;;;1.20;;
39772;SDS011;25451;51.960;6.250;2023-04-01T01:38:06;4.25;;;1.30;;
39772;SDS011;25451;51.960;6.250;2023-04-01T01:40:36;2.83;;;1.20;;
39772;SDS011;25451;51.960;6.250;2023-04-01T01:43:06;5.05;;;1.50;;
39772;SDS011;25451;51.960;6.250;2023-04-01T01:45:36;3.72;;;1.40;;
39772;SDS011;25451;51.960;6.250;2023-04-01T01:48:05;3.47;;;1.70;;
39772;SDS011;25451;51.960;6.250;2023-04-01T01:50:33;4.75;;;1.58;;
39772;SDS011;25451;51.960;6.250;2023-04-01T01:53:02;4.22;;;1.60;;
39772;SDS011;25451;51.960;6.250;2023-04-01T01:55:33;6.30;;;2.00;;
39772;SDS011;25451;51.960;6.250;2023-04-01T01:58:03;3.05;;;1.70;;
39772;SDS011;25451;51.960;6.250;2023-04-01T02:00:34;5.13;;;1.80;;
39772;SDS011;25451;51.960;6.250;2023-04-01T02:03:01;3.63;;;1.80;;
39772;SDS011;25451;51.960;6.250;2023-04-01T02:05:27;4.18;;;1.95;;
39772;SDS011;25451;51.960;6.250;2023-04-01T02:08:16;5.07;;;1.90;;
39772;SDS011;25451;51.960;6.250;2023-04-01T02:10:47;3.42;;;2.00;;
39772;SDS011;25451;51.960;6.250;2023-04-01T02:13:29;5.45;;;2.03;;
39772;SDS011;25451;51.960;6.250;2023-04-01T02:16:21;3.58;;;2.10;;
39772;SDS011;25451;51.960;6.250;2023-04-01T02:18:52;5.60;;;2.47;;
39772;SDS011;25451;51.960;6.250;2023-04-01T02:21:20;4.25;;;2.08;;
39772;SDS011;25451;51.960;6.250;2023-04-01T02:23:48;5.05;;;2.45;;
39772;SDS011;25451;51.960;6.250;2023-04-01T02:26:15;5.68;;;2.47;;
39772;SDS011;25451;51.960;6.250;2023-04-01T02:28:41;7.05;;;3.00;;
39772;SDS011;25451;51.960;6.250;2023-04-01T02:31:11;6.20;;;2.70;;
39772;SDS011;25451;51.960;6.250;2023-04-01T02:33:39;6.88;;;2.95;;
39772;SDS011;25451;51.960;6.250;2023-04-01T02:36:05;5.90;;;2.90;;
39772;SDS011;25451;51.960;6.250;2023-04-01T02:38:30;6.47;;;2.40;;
39772;SDS011;25451;51.960;6.250;2023-04-01T02:41:00;6.80;;;2.97;;
39772;SDS011;25451;51.960;6.250;2023-04-01T02:43:27;5.88;;;2.95;;
39772;SDS011;25451;51.960;6.250;2023-04-01T02:45:53;5.75;;;2.83;;
39772;SDS011;25451;51.960;6.250;2023-04-01T02:48:18;5.30;;;2.57;;
39772;SDS011;25451;51.960;6.250;2023-04-01T02:50:44;4.90;;;2.67;;
39772;SDS011;25451;51.960;6.250;2023-04-01T02:53:09;5.72;;;2.78;;
39772;SDS011;25451;51.960;6.250;2023-04-01T02:55:35;4.73;;;2.60;;
39772;SDS011;25451;51.960;6.250;2023-04-01T02:58:00;5.77;;;2.80;;
39772;SDS011;25451;51.960;6.250;2023-04-01T03:00:26;5.53;;;2.83;;
39772;SDS011;25451;51.960;6.250;2023-04-01T03:02:51;5.43;;;2.63;;
39772;SDS011;25451;51.960;6.250;2023-04-01T03:05:17;4.80;;;2.77;;
39772;SDS011;25451;51.960;6.250;2023-04-01T03:07:43;5.80;;;2.88;;
39772;SDS011;25451;51.960;6.250;2023-04-01T03:10:08;5.97;;;2.90;;
39772;SDS011;25451;51.960;6.250;2023-04-01T03:12:34;5.25;;;2.70;;
39772;SDS011;25451;51.960;6.250;2023-04-01T03:14:59;5.87;;;2.90;;
39772;SDS011;25451;51.960;6.250;2023-04-01T03:17:25;5.57;;;2.93;;
39772;SDS011;25451;51.960;6.250;2023-04-01T03:19:50;6.47;;;2.93;;
39772;SDS011;25451;51.960;6.250;2023-04-01T03:22:15;5.80;;;2.80;;
39772;SDS011;25451;51.960;6.250;2023-04-01T03:24:41;5.47;;;2.92;;
39772;SDS011;25451;51.960;6.250;2023-04-01T03:27:06;5.10;;;2.50;;
39772;SDS011;25451;51.960;6.250;2023-04-01T03:29:32;4.03;;;2.50;;
39772;SDS011;25451;51.960;6.250;2023-04-01T03:31:57;5.37;;;2.60;;
39772;SDS011;25451;51.960;6.250;2023-04-01T03:34:24;4.85;;;2.25;;
39772;SDS011;25451;51.960;6.250;2023-04-01T03:36:50;4.07;;;2.35;;
39772;SDS011;25451;51.960;6.250;2023-04-01T03:39:16;5.32;;;2.50;;
39772;SDS011;25451;51.960;6.250;2023-04-01T03:41:43;4.82;;;2.60;;
39772;SDS011;25451;51.960;6.250;2023-04-01T03:44:09;5.75;;;2.63;;
39772;SDS011;25451;51.960;6.250;2023-04-01T03:46:35;6.10;;;2.70;;
39772;SDS011;25451;51.960;6.250;2023-04-01T03:49:00;5.43;;;2.73;;
39772;SDS011;25451;51.960;6.250;2023-04-01T03:51:25;3.67;;;2.05;;
39772;SDS011;25451;51.960;6.250;2023-04-01T03:53:51;4.47;;;2.50;;
39772;SDS011;25451;51.960;6.250;2023-04-01T03:56:16;4.57;;;2.40;;
39772;SDS011;25451;51.960;6.250;2023-04-01T03:58:41;5.27;;;2.40;;
39772;SDS011;25451;51.960;6.250;2023-04-01T04:01:20;4.50;;;2.40;;
39772;SDS011;25451;51.960;6.250;2023-04-01T04:03:46;4.57;;;2.28;;
39772;SDS011;25451;51.960;6.250;2023-04-01T04:06:14;4.20;;;2.10;;
39772;SDS011;25451;51.960;6.250;2023-04-01T04:08:40;4.43;;;2.10;;
39772;SDS011;25451;51.960;6.250;2023-04-01T04:11:05;4.00;;;1.90;;
39772;SDS011;25451;51.960;6.250;2023-04-01T04:13:31;4.40;;;1.70;;
39772;SDS011;25451;51.960;6.250;2023-04-01T04:15:56;4.40;;;2.10;;
39772;SDS011;25451;51.960;6.250;2023-04-01T04:18:22;2.97;;;1.67;;
39772;SDS011;25451;51.960;6.250;2023-04-01T04:20:48;5.80;;;2.10;;
39772;SDS011;25451;51.960;6.250;2023-04-01T04:23:15;4.07;;;1.90;;
39772;SDS011;25451;51.960;6.250;2023-04-01T04:25:41;3.00;;;1.70;;
39772;SDS011;25451;51.960;6.250;2023-04-01T04:28:06;3.20;;;1.60;;
39772;SDS011;25451;51.960;6.250;2023-04-01T04:30:31;3.00;;;1.60;;
39772;SDS011;25451;51.960;6.250;2023-04-01T04:32:57;4.38;;;1.50;;
39772;SDS011;25451;51.960;6.250;2023-04-01T04:35:22;4.55;;;1.90;;
39772;SDS011;25451;51.960;6.250;2023-04-01T04:37:47;5.17;;;1.80;;
39772;SDS011;25451;51.960;6.250;2023-04-01T04:40:13;4.73;;;1.63;;
39772;SDS011;25451;51.960;6.250;2023-04-01T04:42:38;3.37;;;1.53;;
39772;SDS011;25451;51.960;6.250;2023-04-01T04:45:03;2.50;;;1.40;;
39772;SDS011;25451;51.960;6.250;2023-04-01T04:47:29;3.33;;;1.53;;
39772;SDS011;25451;51.960;6.250;2023-04-01T04:49:54;3.93;;;1.60;;
39772;SDS011;25451;51.960;6.250;2023-04-01T04:52:19;3.40;;;1.80;;
39772;SDS011;25451;51.960;6.250;2023-04-01T04:54:45;4.95;;;1.60;;
39772;SDS011;25451;51.960;6.250;2023-04-01T04:57:10;3.47;;;1.67;;
39772;SDS011;25451;51.960;6.250;2023-04-01T04:59:35;3.33;;;1.43;;
39772;SDS011;25451;51.960;6.250;2023-04-01T05:02:01;6.70;;;1.70;;
39772;SDS011;25451;51.960;6.250;2023-04-01T05:04:27;3.33;;;1.65;;
39772;SDS011;25451;51.960;6.250;2023-04-01T05:06:52;3.10;;;1.63;;
39772;SDS011;25451;51.960;6.250;2023-04-01T05:09:17;3.40;;;1.73;;
39772;SDS011;25451;51.960;6.250;2023-04-01T05:11:43;2.90;;;1.60;;
39772;SDS011;25451;51.960;6.250;2023-04-01T05:14:15;3.20;;;1.47;;
39772;SDS011;25451;51.960;6.250;2023-04-01T05:16:40;3.22;;;1.58;;
39772;SDS011;25451;51.960;6.250;2023-04-01T05:19:06;2.70;;;1.50;;
39772;SDS011;25451;51.960;6.250;2023-04-01T05:21:31;2.77;;;1.60;;
39772;SDS011;25451;51.960;6.250;2023-04-01T05:23:56;3.08;;;1.70;;
39772;SDS011;25451;51.960;6.250;2023-04-01T05:26:22;2.67;;;1.60;;
39772;SDS011;25451;51.960;6.250;2023-04-01T05:28:47;4.50;;;1.77;;
39772;SDS011;25451;51.960;6.250;2023-04-01T05:31:12;3.97;;;1.83;;
39772;SDS011;25451;51.960;6.250;2023-04-01T05:33:38;4.27;;;1.87;;
39772;SDS011;25451;51.960;6.250;2023-04-01T05:36:13;2.80;;;1.60;;
39772;SDS011;25451;51.960;6.250;2023-04-01T05:38:40;3.35;;;1.90;;
39772;SDS011;25451;51.960;6.250;2023-04-01T05:41:07;4.47;;;1.85;;
39772;SDS011;25451;51.960;6.250;2023-04-01T05:43:35;3.30;;;1.80;;
39772;SDS011;25451;51.960;6.250;2023-04-01T05:46:00;4.10;;;1.98;;
39772;SDS011;25451;51.960;6.250;2023-04-01T05:48:26;3.60;;;2.10;;
39772;SDS011;25451;51.960;6.250;2023-04-01T05:50:51;3.27;;;1.90;;
39772;SDS011;25451;51.960;6.250;2023-04-01T05:53:16;3.77;;;2.00;;
39772;SDS011;25451;51.960;6.250;2023-04-01T05:55:42;3.43;;;1.93;;
39772;SDS011;25451;51.960;6.250;2023-04-01T05:58:07;4.10;;;2.10;;
39772;SDS011;25451;51.960;6.250;2023-04-01T06:00:32;3.73;;;2.33;;
39772;SDS011;25451;51.960;6.250;2023-04-01T06:02:58;4.70;;;2.50;;
39772;SDS011;25451;51.960;6.250;2023-04-01T06:05:26;4.43;;;2.40;;
39772;SDS011;25451;51.960;6.250;2023-04-01T06:07:58;5.80;;;2.92;;
39772;SDS011;25451;51.960;6.250;2023-04-01T06:13:18;4.43;;;2.53;;
39772;SDS011;25451;51.960;6.250;2023-04-01T06:16:08;4.50;;;2.57;;
39772;SDS011;25451;51.960;6.250;2023-04-01T06:32:27;4.95;;;2.80;;
39772;SDS011;25451;51.960;6.250;2023-04-01T06:43:34;5.70;;;3.00;;
39772;SDS011;25451;51.960;6.250;2023-04-01T06:54:48;6.93;;;3.17;;
39772;SDS011;25451;51.960;6.250;2023-04-01T06:57:24;5.40;;;3.10;;
39772;SDS011;25451;51.960;6.250;2023-04-01T06:59:59;6.20;;;3.10;;
39772;SDS011;25451;51.960;6.250;2023-04-01T07:04:56;6.03;;;3.20;;
39772;SDS011;25451;51.960;6.250;2023-04-01T07:10:04;5.87;;;2.87;;
39772;SDS011;25451;51.960;6.250;2023-04-01T07:12:51;7.80;;;3.17;;
39772;SDS011;25451;51.960;6.250;2023-04-01T07:15:30;7.07;;;2.90;;
39772;SDS011;25451;51.960;6.250;2023-04-01T07:18:05;8.43;;;2.97;;
39772;SDS011;25451;51.960;6.250;2023-04-01T07:20:37;7.13;;;2.90;;
39772;SDS011;25451;51.960;6.250;2023-04-01T07:23:16;7.90;;;3.03;;
39772;SDS011;25451;51.960;6.250;2023-04-01T07:25:48;8.73;;;2.90;;
39772;SDS011;25451;51.960;6.250;2023-04-01T07:28:18;7.28;;;3.00;;
39772;SDS011;25451;51.960;6.250;2023-04-01T07:42:31;8.95;;;2.92;;
39772;SDS011;25451;51.960;6.250;2023-04-01T07:45:11;6.93;;;2.75;;
39772;SDS011;25451;51.960;6.250;2023-04-01T07:53:19;7.63;;;3.13;;
39772;SDS011;25451;51.960;6.250;2023-04-01T07:56:07;6.78;;;2.88;;
39772;SDS011;25451;51.960;6.250;2023-04-01T08:18:14;6.88;;;2.90;;
39772;SDS011;25451;51.960;6.250;2023-04-01T08:20:45;7.80;;;2.90;;
39772;SDS011;25451;51.960;6.250;2023-04-01T08:23:19;8.57;;;3.17;;
39772;SDS011;25451;51.960;6.250;2023-04-01T08:26:08;8.93;;;3.15;;
39772;SDS011;25451;51.960;6.250;2023-04-01T08:28:44;7.50;;;3.28;;
39772;SDS011;25451;51.960;6.250;2023-04-01T08:31:17;7.13;;;2.92;;
39772;SDS011;25451;51.960;6.250;2023-04-01T08:33:47;7.00;;;2.92;;
39772;SDS011;25451;51.960;6.250;2023-04-01T08:36:19;6.20;;;2.85;;
39772;SDS011;25451;51.960;6.250;2023-04-01T08:38:54;10.18;;;3.17;;
39772;SDS011;25451;51.960;6.250;2023-04-01T08:50:12;8.43;;;3.10;;
39772;SDS011;25451;51.960;6.250;2023-04-01T08:56:00;8.70;;;3.20;;
39772;SDS011;25451;51.960;6.250;2023-04-01T09:00:55;8.47;;;3.67;;
39772;SDS011;25451;51.960;6.250;2023-04-01T09:04:03;7.97;;;3.13;;
39772;SDS011;25451;51.960;6.250;2023-04-01T09:09:40;7.50;;;2.88;;
39772;SDS011;25451;51.960;6.250;2023-04-01T09:14:45;8.07;;;3.00;;
39772;SDS011;25451;51.960;6.250;2023-04-01T09:20:42;6.63;;;2.90;;
39772;SDS011;25451;51.960;6.250;2023-04-01T09:25:59;5.82;;;2.22;;
39772;SDS011;25451;51.960;6.250;2023-04-01T09:31:38;6.35;;;2.35;;
39772;SDS011;25451;51.960;6.250;2023-04-01T09:44:32;4.97;;;2.03;;
39772;SDS011;25451;51.960;6.250;2023-04-01T09:49:55;4.20;;;2.20;;
39772;SDS011;25451;51.960;6.250;2023-04-01T09:52:52;4.75;;;2.20;;
39772;SDS011;25451;51.960;6.250;2023-04-01T10:09:15;3.00;;;1.30;;
39772;SDS011;25451;51.960;6.250;2023-04-01T10:40:41;3.47;;;1.80;;
39772;SDS011;25451;51.960;6.250;2023-04-01T10:43:28;4.68;;;1.85;;
39772;SDS011;25451;51.960;6.250;2023-04-01T10:54:29;3.55;;;1.67;;
39772;SDS011;25451;51.960;6.250;2023-04-01T11:00:11;4.50;;;1.70;;
39772;SDS011;25451;51.960;6.250;2023-04-01T11:21:02;4.20;;;1.92;;
39772;SDS011;25451;51.960;6.250;2023-04-01T11:29:35;2.50;;;1.40;;
39772;SDS011;25451;51.960;6.250;2023-04-01T11:37:43;2.60;;;1.20;;
39772;SDS011;25451;51.960;6.250;2023-04-01T11:40:27;1.88;;;1.02;;
39772;SDS011;25451;51.960;6.250;2023-04-01T11:46:23;2.60;;;1.23;;
39772;SDS011;25451;51.960;6.250;2023-04-01T11:52:13;2.40;;;1.30;;
39772;SDS011;25451;51.960;6.250;2023-04-01T12:03:43;3.47;;;1.75;;
39772;SDS011;25451;51.960;6.250;2023-04-01T12:09:36;5.68;;;2.10;;
39772;SDS011;25451;51.960;6.250;2023-04-01T12:20:36;4.57;;;2.35;;
39772;SDS011;25451;51.960;6.250;2023-04-01T12:23:28;4.55;;;2.22;;
39772;SDS011;25451;51.960;6.250;2023-04-01T12:26:07;3.53;;;1.80;;
39772;SDS011;25451;51.960;6.250;2023-04-01T12:46:16;8.35;;;2.70;;
39772;SDS011;25451;51.960;6.250;2023-04-01T12:48:59;5.15;;;2.33;;
39772;SDS011;25451;51.960;6.250;2023-04-01T13:00:20;4.65;;;1.42;;
39772;SDS011;25451;51.960;6.250;2023-04-01T13:02:53;4.18;;;1.55;;
39772;SDS011;25451;51.960;6.250;2023-04-01T13:10:56;5.03;;;1.10;;
39772;SDS011;25451;51.960;6.250;2023-04-01T13:13:41;1.30;;;0.75;;
39772;SDS011;25451;51.960;6.250;2023-04-01T13:18:56;1.95;;;1.10;;
39772;SDS011;25451;51.960;6.250;2023-04-01T13:21:39;1.20;;;0.90;;
39772;SDS011;25451;51.960;6.250;2023-04-01T13:32:56;1.15;;;0.60;;
39772;SDS011;25451;51.960;6.250;2023-04-01T13:43:48;2.45;;;0.95;;
39772;SDS011;25451;51.960;6.250;2023-04-01T14:05:46;3.33;;;0.80;;
39772;SDS011;25451;51.960;6.250;2023-04-01T14:17:03;1.50;;;0.80;;
39772;SDS011;25451;51.960;6.250;2023-04-01T14:19:46;2.87;;;0.80;;
39772;SDS011;25451;51.960;6.250;2023-04-01T14:22:38;1.67;;;0.88;;
39772;SDS011;25451;51.960;6.250;2023-04-01T14:33:51;2.23;;;1.00;;
39772;SDS011;25451;51.960;6.250;2023-04-01T14:36:31;1.58;;;0.90;;
39772;SDS011;25451;51.960;6.250;2023-04-01T14:42:18;1.40;;;0.88;;
39772;SDS011;25451;51.960;6.250;2023-04-01T14:44:55;1.90;;;0.90;;
39772;SDS011;25451;51.960;6.250;2023-04-01T14:49:50;2.27;;;1.20;;
39772;SDS011;25451;51.960;6.250;2023-04-01T14:54:46;3.15;;;1.10;;
39772;SDS011;25451;51.960;6.250;2023-04-01T14:57:14;1.92;;;1.10;;
39772;SDS011;25451;51.960;6.250;2023-04-01T14:59:50;2.28;;;1.00;;
39772;SDS011;25451;51.960;6.250;2023-04-01T15:16:45;2.20;;;1.20;;
39772;SDS011;25451;51.960;6.250;2023-04-01T15:31:49;3.40;;;1.73;;
39772;SDS011;25451;51.960;6.250;2023-04-01T15:37:04;2.90;;;1.67;;
39772;SDS011;25451;51.960;6.250;2023-04-01T15:42:47;2.63;;;1.50;;
39772;SDS011;25451;51.960;6.250;2023-04-01T15:45:35;2.30;;;1.30;;
39772;SDS011;25451;51.960;6.250;2023-04-01T16:04:34;3.55;;;2.03;;
39772;SDS011;25451;51.960;6.250;2023-04-01T16:07:17;3.58;;;2.20;;
39772;SDS011;25451;51.960;6.250;2023-04-01T16:12:36;4.17;;;2.60;;
39772;SDS011;25451;51.960;6.250;2023-04-01T16:15:20;4.00;;;2.40;;
39772;SDS011;25451;51.960;6.250;2023-04-01T16:20:40;4.15;;;2.22;;
39772;SDS011;25451;51.960;6.250;2023-04-01T16:23:25;3.65;;;2.40;;
39772;SDS011;25451;51.960;6.250;2023-04-01T16:26:02;4.50;;;2.50;;
39772;SDS011;25451;51.960;6.250;2023-04-01T16:28:43;5.60;;;2.40;;
39772;SDS011;25451;51.960;6.250;2023-04-01T16:31:32;3.92;;;2.47;;
39772;SDS011;25451;51.960;6.250;2023-04-01T16:40:12;3.70;;;2.30;;
39772;SDS011;25451;51.960;6.250;2023-04-01T16:42:53;3.60;;;2.10;;
39772;SDS011;25451;51.960;6.250;2023-04-01T16:45:30;3.78;;;2.10;;
39772;SDS011;25451;51.960;6.250;2023-04-01T16:48:11;4.28;;;2.60;;
39772;SDS011;25451;51.960;6.250;2023-04-01T16:50:44;4.22;;;2.22;;
39772;SDS011;25451;51.960;6.250;2023-04-01T16:56:16;4.18;;;2.38;;
39772;SDS011;25451;51.960;6.250;2023-04-01T17:01:29;3.83;;;2.13;;
39772;SDS011;25451;51.960;6.250;2023-04-01T17:07:02;3.77;;;2.30;;
39772;SDS011;25451;51.960;6.250;2023-04-01T17:09:43;3.90;;;2.30;;
39772;SDS011;25451;51.960;6.250;2023-04-01T17:15:02;4.13;;;2.35;;
39772;SDS011;25451;51.960;6.250;2023-04-01T17:22:59;5.40;;;3.05;;
39772;SDS011;25451;51.960;6.250;2023-04-01T17:25:48;5.43;;;3.22;;
39772;SDS011;25451;51.960;6.250;2023-04-01T17:31:21;6.45;;;3.28;;
39772;SDS011;25451;51.960;6.250;2023-04-01T17:36:33;5.30;;;3.10;;
39772;SDS011;25451;51.960;6.250;2023-04-01T17:39:30;7.72;;;3.10;;
39772;SDS011;25451;51.960;6.250;2023-04-01T17:42:06;5.82;;;3.13;;
39772;SDS011;25451;51.960;6.250;2023-04-01T17:44:39;6.50;;;3.40;;
39772;SDS011;25451;51.960;6.250;2023-04-01T17:52:47;4.95;;;3.03;;
39772;SDS011;25451;51.960;6.250;2023-04-01T18:21:32;5.50;;;3.35;;
39772;SDS011;25451;51.960;6.250;2023-04-01T18:24:14;5.85;;;3.22;;
39772;SDS011;25451;51.960;6.250;2023-04-01T18:26:49;6.03;;;3.53;;
39772;SDS011;25451;51.960;6.250;2023-04-01T18:29:32;6.00;;;3.13;;
39772;SDS011;25451;51.960;6.250;2023-04-01T18:32:11;5.00;;;3.15;;
39772;SDS011;25451;51.960;6.250;2023-04-01T18:35:00;6.30;;;3.67;;
39772;SDS011;25451;51.960;6.250;2023-04-01T18:40:37;6.45;;;3.90;;
39772;SDS011;25451;51.960;6.250;2023-04-01T18:45:44;5.68;;;3.40;;
39772;SDS011;25451;51.960;6.250;2023-04-01T18:51:13;5.88;;;3.28;;
39772;SDS011;25451;51.960;6.250;2023-04-01T18:53:58;5.10;;;3.13;;
39772;SDS011;25451;51.960;6.250;2023-04-01T19:01:43;6.32;;;3.35;;
39772;SDS011;25451;51.960;6.250;2023-04-01T19:07:21;6.35;;;3.30;;
39772;SDS011;25451;51.960;6.250;2023-04-01T19:15:24;7.18;;;4.05;;
39772;SDS011;25451;51.960;6.250;2023-04-01T19:20:37;5.85;;;3.45;;
39772;SDS011;25451;51.960;6.250;2023-04-01T19:25:56;6.30;;;3.10;;
39772;SDS011;25451;51.960;6.250;2023-04-01T19:28:38;6.22;;;3.10;;
39772;SDS011;25451;51.960;6.250;2023-04-01T19:39:39;9.13;;;4.13;;
39772;SDS011;25451;51.960;6.250;2023-04-01T19:50:46;5.57;;;2.97;;
39772;SDS011;25451;51.960;6.250;2023-04-01T20:01:34;6.07;;;3.53;;
39772;SDS011;25451;51.960;6.250;2023-04-01T20:04:05;6.53;;;3.97;;
39772;SDS011;25451;51.960;6.250;2023-04-01T20:09:36;5.88;;;3.55;;
39772;SDS011;25451;51.960;6.250;2023-04-01T20:14:45;5.22;;;3.42;;
39772;SDS011;25451;51.960;6.250;2023-04-01T20:17:30;5.83;;;3.73;;
39772;SDS011;25451;51.960;6.250;2023-04-01T20:20:03;6.82;;;3.50;;
39772;SDS011;25451;51.960;6.250;2023-04-01T20:25:17;6.63;;;3.37;;
39772;SDS011;25451;51.960;6.250;2023-04-01T20:27:56;5.10;;;3.20;;
39772;SDS011;25451;51.960;6.250;2023-04-01T20:44:19;6.75;;;4.20;;
39772;SDS011;25451;51.960;6.250;2023-04-01T20:47:00;5.65;;;3.60;;
39772;SDS011;25451;51.960;6.250;2023-04-01T20:49:40;5.93;;;3.53;;
39772;SDS011;25451;51.960;6.250;2023-04-01T21:02:48;5.30;;;3.33;;
39772;SDS011;25451;51.960;6.250;2023-04-01T21:05:24;6.22;;;3.60;;
39772;SDS011;25451;51.960;6.250;2023-04-01T21:07:55;4.93;;;3.08;;
39772;SDS011;25451;51.960;6.250;2023-04-01T21:13:26;6.30;;;3.93;;
39772;SDS011;25451;51.960;6.250;2023-04-01T21:16:25;6.40;;;4.22;;
39772;SDS011;25451;51.960;6.250;2023-04-01T21:25:03;6.85;;;4.13;;
39772;SDS011;25451;51.960;6.250;2023-04-01T21:27:52;5.37;;;3.47;;
39772;SDS011;25451;51.960;6.250;2023-04-01T21:38:42;4.80;;;3.33;;
39772;SDS011;25451;51.960;6.250;2023-04-01T21:44:16;4.63;;;2.95;;
39772;SDS011;25451;51.960;6.250;2023-04-01T21:47:15;4.00;;;2.72;;
39772;SDS011;25451;51.960;6.250;2023-04-01T21:50:06;3.90;;;2.60;;
39772;SDS011;25451;51.960;6.250;2023-04-01T22:01:13;5.57;;;2.60;;
39772;SDS011;25451;51.960;6.250;2023-04-01T22:06:56;3.65;;;2.20;;
39772;SDS011;25451;51.960;6.250;2023-04-01T22:09:37;3.17;;;2.07;;
39772;SDS011;25451;51.960;6.250;2023-04-01T22:12:11;3.50;;;2.20;;
39772;SDS011;25451;51.960;6.250;2023-04-01T22:17:45;3.95;;;2.10;;
39772;SDS011;25451;51.960;6.250;2023-04-01T22:20:28;3.65;;;2.15;;
39772;SDS011;25451;51.960;6.250;2023-04-01T22:31:28;4.45;;;2.00;;
39772;SDS011;25451;51.960;6.250;2023-04-01T22:42:51;4.25;;;2.75;;
39772;SDS011;25451;51.960;6.250;2023-04-01T22:48:01;4.45;;;2.58;;
39772;SDS011;25451;51.960;6.250;2023-04-01T22:50:40;4.70;;;2.85;;
39772;SDS011;25451;51.960;6.250;2023-04-01T22:56:24;4.90;;;2.90;;
39772;SDS011;25451;51.960;6.250;2023-04-01T23:01:30;4.55;;;2.67;;
39772;SDS011;25451;51.960;6.250;2023-04-01T23:04:03;5.93;;;3.35;;
39772;SDS011;25451;51.960;6.250;2023-04-01T23:06:35;5.87;;;3.50;;
39772;SDS011;25451;51.960;6.250;2023-04-01T23:09:07;5.60;;;3.40;;
39772;SDS011;25451;51.960;6.250;2023-04-01T23:11:49;6.28;;;3.83;;
39772;SDS011;25451;51.960;6.250;2023-04-01T23:19:57;7.73;;;4.30;;
39772;SDS011;25451;51.960;6.250;2023-04-01T23:22:34;10.52;;;4.50;;
39772;SDS011;25451;51.960;6.250;2023-04-01T23:35:58;8.02;;;4.22;;
39772;SDS011;25451;51.960;6.250;2023-04-01T23:38:37;7.28;;;4.32;;
39772;SDS011;25451;51.960;6.250;2023-04-01T23:41:06;6.18;;;3.65;;
39772;SDS011;25451;51.960;6.250;2023-04-01T23:43:35;7.43;;;3.88;;
39772;SDS011;25451;51.960;6.250;2023-04-01T23:46:03;6.67;;;4.07;;
39772;SDS011;25451;51.960;6.250;2023-04-01T23:48:33;8.45;;;4.18;;
39772;SDS011;25451;51.960;6.250;2023-04-01T23:51:03;5.88;;;3.47;;
39772;SDS011;25451;51.960;6.250;2023-04-01T23:53:34;5.85;;;3.33;;
39772;SDS011;25451;51.960;6.250;2023-04-01T23:56:01;6.78;;;4.03;;
